Time;durP1;ratioP1;P1;durP2;ratioP2;P2;SDS_P1;SDS_P2;PMS_P1;PMS_P2;Temp;Humidity;BMP_temperature;BMP_pressure;BME280_temperature;BME280_humidity;BME280_pressure;Samples;Min_cycle;Max_cycle;Signal;HPM_P1;HPM_P2
2021/08/04 00:00:44;;;;;;;0.80;0.20;;;16.90;82.00;;;;;;5053603;28;20115;-76
2021/08/04 00:03:09;;;;;;;0.30;0.20;;;16.80;82.10;;;;;;5070302;28;20067;-75
2021/08/04 00:05:35;;;;;;;0.30;0.22;;;16.80;82.20;;;;;;5053420;28;20088;-76
2021/08/04 00:08:01;;;;;;;0.30;0.30;;;16.80;82.30;;;;;;5055057;28;20097;-76
2021/08/04 00:10:26;;;;;;;0.30;0.30;;;16.80;82.30;;;;;;5070380;28;20025;-76
2021/08/04 00:12:52;;;;;;;0.30;0.30;;;16.80;82.50;;;;;;5075216;28;20104;-76
2021/08/04 00:15:21;;;;;;;0.35;0.20;;;16.80;82.70;;;;;;5073913;28;20032;-75
2021/08/04 00:17:47;;;;;;;0.20;0.20;;;16.80;82.70;;;;;;5075057;28;20056;-76
2021/08/04 00:20:14;;;;;;;0.20;0.20;;;16.80;82.80;;;;;;5069306;28;20029;-76
2021/08/04 00:22:39;;;;;;;0.20;0.20;;;16.80;82.60;;;;;;5053760;28;20503;-76
2021/08/04 00:25:06;;;;;;;0.30;0.20;;;16.80;82.10;;;;;;5070250;28;20419;-76
2021/08/04 00:27:32;;;;;;;0.30;0.30;;;16.80;82.50;;;;;;5067993;28;20477;-76
2021/08/04 00:29:58;;;;;;;0.40;0.30;;;16.80;82.30;;;;;;5094014;28;20089;-76
2021/08/04 00:32:29;;;;;;;0.45;0.30;;;16.90;82.20;;;;;;5086961;28;20017;-76
2021/08/04 00:34:54;;;;;;;0.38;0.30;;;16.80;82.70;;;;;;5058630;28;20044;-76
2021/08/04 00:37:20;;;;;;;0.20;0.20;;;16.80;82.40;;;;;;5057276;28;20124;-76
2021/08/04 00:39:46;;;;;;;0.60;0.30;;;16.90;82.10;;;;;;5077014;28;20028;-76
2021/08/04 00:42:11;;;;;;;0.30;0.30;;;16.80;82.40;;;;;;5078123;28;20041;-75
2021/08/04 00:44:37;;;;;;;0.20;0.20;;;16.80;82.30;;;;;;5072910;28;20040;-76
2021/08/04 00:47:05;;;;;;;0.25;0.20;;;16.80;82.50;;;;;;5058177;28;20059;-76
2021/08/04 00:49:33;;;;;;;0.30;0.22;;;16.80;82.70;;;;;;5058458;28;20418;-75
2021/08/04 00:51:59;;;;;;;0.35;0.30;;;16.80;82.60;;;;;;5058168;28;20013;-76
2021/08/04 00:54:25;;;;;;;0.30;0.30;;;16.80;82.60;;;;;;5057026;28;20518;-76
2021/08/04 00:56:50;;;;;;;0.30;0.30;;;16.90;82.20;;;;;;5056803;28;20025;-76
2021/08/04 00:59:17;;;;;;;0.20;0.20;;;16.90;82.30;;;;;;5057956;28;20025;-76
2021/08/04 01:02:00;;;;;;;0.30;0.20;;;16.80;82.30;;;;;;5056423;28;20040;-76
2021/08/04 01:04:30;;;;;;;0.20;0.20;;;16.80;82.60;;;;;;5056570;28;20052;-76
2021/08/04 01:07:04;;;;;;;0.40;0.30;;;16.80;82.90;;;;;;5057914;28;20048;-75
2021/08/04 01:09:41;;;;;;;0.30;0.30;;;16.70;83.70;;;;;;5071947;28;20791;-75
2021/08/04 01:12:21;;;;;;;0.30;0.20;;;16.60;83.90;;;;;;5073069;28;20493;-76
2021/08/04 01:14:49;;;;;;;0.33;0.30;;;16.50;84.20;;;;;;5057680;28;20025;-76
2021/08/04 01:17:17;;;;;;;0.25;0.25;;;16.50;83.80;;;;;;5057388;28;20773;-76
2021/08/04 01:19:49;;;;;;;0.30;0.30;;;16.30;84.20;;;;;;5055987;28;20029;-75
2021/08/04 01:22:27;;;;;;;0.30;0.30;;;16.30;84.70;;;;;;5057320;28;20033;-76
2021/08/04 01:25:05;;;;;;;0.40;0.30;;;16.30;84.90;;;;;;5057300;28;20021;-75
2021/08/04 01:27:31;;;;;;;0.30;0.30;;;16.30;85.00;;;;;;5061016;28;20512;-76
2021/08/04 01:29:59;;;;;;;0.60;0.38;;;16.30;85.00;;;;;;5075995;28;20028;-76
2021/08/04 01:32:27;;;;;;;0.40;0.30;;;16.40;84.90;;;;;;5070759;28;20487;-75
2021/08/04 01:35:02;;;;;;;0.40;0.30;;;16.50;84.30;;;;;;5055879;28;20021;-75
2021/08/04 01:37:29;;;;;;;0.50;0.30;;;16.60;84.20;;;;;;5057420;28;20438;-76
2021/08/04 01:39:56;;;;;;;0.40;0.30;;;16.60;84.10;;;;;;5057231;28;20567;-76
2021/08/04 01:42:23;;;;;;;0.38;0.30;;;16.50;84.30;;;;;;5077423;28;20052;-75
2021/08/04 01:44:49;;;;;;;0.35;0.30;;;16.50;84.30;;;;;;5074487;28;20441;-78
2021/08/04 01:47:16;;;;;;;0.40;0.35;;;16.50;84.00;;;;;;5074230;28;20025;-76
2021/08/04 01:49:42;;;;;;;0.60;0.40;;;16.40;84.70;;;;;;5055627;28;20112;-75
2021/08/04 01:52:08;;;;;;;0.50;0.38;;;16.40;84.50;;;;;;5055855;28;20023;-75
2021/08/04 01:54:35;;;;;;;0.30;0.30;;;16.50;84.30;;;;;;5055241;28;20033;-76
2021/08/04 01:57:01;;;;;;;0.35;0.30;;;16.50;84.40;;;;;;5063194;28;20042;-75
2021/08/04 01:59:27;;;;;;;0.30;0.30;;;16.30;84.80;;;;;;5076764;28;20070;-75
2021/08/04 02:02:12;;;;;;;0.50;0.30;;;16.20;84.80;;;;;;5076524;28;20041;-76
2021/08/04 02:04:38;;;;;;;0.25;0.25;;;16.30;84.90;;;;;;5066009;28;20029;-76
2021/08/04 02:07:08;;;;;;;0.30;0.30;;;16.30;84.60;;;;;;5056789;28;20061;-75
2021/08/04 02:09:46;;;;;;;0.50;0.30;;;16.30;84.70;;;;;;5055212;28;20021;-75
2021/08/04 02:12:12;;;;;;;0.30;0.30;;;16.30;84.60;;;;;;5058027;28;20036;-75
2021/08/04 02:14:49;;;;;;;0.35;0.30;;;16.30;84.30;;;;;;5076311;28;20028;-76
2021/08/04 02:17:35;;;;;;;0.50;0.40;;;16.30;84.40;;;;;;5060046;28;20399;-75
2021/08/04 02:20:18;;;;;;;0.32;0.30;;;16.30;84.40;;;;;;5056526;28;20032;-75
2021/08/04 02:22:59;;;;;;;0.40;0.30;;;16.30;84.30;;;;;;5054738;28;20056;-76
2021/08/04 02:25:37;;;;;;;0.40;0.32;;;16.30;84.40;;;;;;5056195;28;20024;-76
2021/08/04 02:28:09;;;;;;;0.30;0.30;;;16.40;84.20;;;;;;5075920;28;20024;-76
2021/08/04 02:30:36;;;;;;;0.20;0.20;;;16.50;83.60;;;;;;5075778;28;20036;-75
2021/08/04 02:33:03;;;;;;;0.20;0.20;;;16.30;83.70;;;;;;5076041;28;20028;-76
2021/08/04 02:35:29;;;;;;;0.30;0.25;;;16.30;83.70;;;;;;5067012;28;20048;-75
2021/08/04 02:37:54;;;;;;;0.30;0.30;;;16.10;84.40;;;;;;5055895;28;20044;-75
2021/08/04 02:40:20;;;;;;;0.30;0.20;;;16.20;84.60;;;;;;5058432;28;20024;-76
2021/08/04 02:42:48;;;;;;;0.30;0.25;;;16.30;83.90;;;;;;5073936;28;20570;-75
2021/08/04 02:45:14;;;;;;;0.40;0.30;;;16.10;84.30;;;;;;5074704;28;20047;-76
2021/08/04 02:47:40;;;;;;;0.20;0.20;;;16.10;84.50;;;;;;5060103;28;20025;-76
2021/08/04 02:50:08;;;;;;;0.20;0.20;;;16.10;84.70;;;;;;5055921;28;20020;-76
2021/08/04 02:52:34;;;;;;;0.22;0.22;;;16.10;84.70;;;;;;5055762;28;20033;-76
2021/08/04 02:55:00;;;;;;;0.30;0.30;;;16.10;84.10;;;;;;5055412;28;20028;-76
2021/08/04 02:57:27;;;;;;;0.30;0.30;;;16.10;84.20;;;;;;5055856;28;20029;-76
2021/08/04 02:59:52;;;;;;;0.20;0.20;;;16.00;84.50;;;;;;5071072;28;20032;-77
2021/08/04 03:02:18;;;;;;;0.50;0.40;;;16.00;85.00;;;;;;5054043;28;20036;-76
2021/08/04 03:04:44;;;;;;;0.30;0.30;;;16.10;84.60;;;;;;5055697;28;20025;-76
2021/08/04 03:07:10;;;;;;;0.30;0.30;;;16.20;84.50;;;;;;5055801;28;20032;-76
2021/08/04 03:09:35;;;;;;;0.20;0.20;;;16.30;84.20;;;;;;5074281;28;20025;-76
2021/08/04 03:12:02;;;;;;;0.20;0.20;;;16.20;84.10;;;;;;5075537;28;20433;-77
2021/08/04 03:14:28;;;;;;;0.22;0.20;;;16.30;84.00;;;;;;5067812;28;20029;-77
2021/08/04 03:16:53;;;;;;;0.28;0.28;;;16.30;83.80;;;;;;5055247;28;20035;-77
2021/08/04 03:19:19;;;;;;;0.30;0.20;;;16.30;83.70;;;;;;5055312;28;20108;-76
2021/08/04 03:21:45;;;;;;;0.20;0.20;;;16.30;83.30;;;;;;5070575;28;20033;-76
2021/08/04 03:24:11;;;;;;;0.20;0.20;;;16.30;83.50;;;;;;5055331;28;20040;-76
2021/08/04 03:26:36;;;;;;;0.30;0.30;;;16.50;83.40;;;;;;5055334;28;20395;-76
2021/08/04 03:29:02;;;;;;;0.30;0.30;;;16.50;83.10;;;;;;5090484;28;20538;-76
2021/08/04 03:31:28;;;;;;;0.20;0.20;;;16.50;82.70;;;;;;5095730;28;20081;-77
2021/08/04 03:33:54;;;;;;;0.50;0.30;;;16.50;83.30;;;;;;5090712;28;20031;-77
2021/08/04 03:36:20;;;;;;;0.30;0.30;;;16.60;82.80;;;;;;5073995;28;20390;-77
2021/08/04 03:38:45;;;;;;;0.22;0.20;;;16.50;82.80;;;;;;5065704;28;20091;-76
2021/08/04 03:41:11;;;;;;;0.38;0.30;;;16.50;82.90;;;;;;5064430;28;20131;-76
2021/08/04 03:43:36;;;;;;;0.28;0.28;;;16.50;82.90;;;;;;5075231;28;20059;-76
2021/08/04 03:46:02;;;;;;;0.30;0.30;;;16.50;82.90;;;;;;5069789;28;20033;-77
2021/08/04 03:48:28;;;;;;;0.30;0.28;;;16.60;82.80;;;;;;5055036;28;20103;-77
2021/08/04 03:50:54;;;;;;;0.30;0.30;;;16.60;82.60;;;;;;5055250;28;20036;-77
2021/08/04 03:53:19;;;;;;;0.30;0.20;;;16.50;82.80;;;;;;5068144;28;20047;-76
2021/08/04 03:55:45;;;;;;;0.20;0.20;;;16.40;83.20;;;;;;5069438;28;20033;-77
2021/08/04 03:58:11;;;;;;;0.30;0.30;;;16.50;83.00;;;;;;5053848;28;20514;-76
2021/08/04 04:00:36;;;;;;;0.30;0.30;;;16.50;82.90;;;;;;5054173;28;20087;-76
2021/08/04 04:03:05;;;;;;;0.22;0.20;;;16.60;83.00;;;;;;5053918;28;20412;-76
2021/08/04 04:05:30;;;;;;;0.30;0.30;;;16.60;82.60;;;;;;5053705;28;20037;-77
2021/08/04 04:07:56;;;;;;;0.30;0.20;;;16.70;82.50;;;;;;5057292;28;20107;-77
2021/08/04 04:10:22;;;;;;;0.20;0.20;;;16.70;82.40;;;;;;5068715;28;20029;-77
2021/08/04 04:12:48;;;;;;;0.30;0.30;;;16.50;82.70;;;;;;5077541;28;20040;-77
2021/08/04 04:15:14;;;;;;;0.30;0.30;;;16.60;82.90;;;;;;5077445;28;20036;-77
2021/08/04 04:17:39;;;;;;;0.30;0.30;;;16.60;82.60;;;;;;5077482;28;20029;-77
2021/08/04 04:20:11;;;;;;;0.28;0.28;;;16.60;82.50;;;;;;5067139;28;20044;-77
2021/08/04 04:22:37;;;;;;;0.22;0.22;;;16.60;82.50;;;;;;5057664;28;20033;-76
2021/08/04 04:25:03;;;;;;;0.25;0.25;;;16.60;82.40;;;;;;5057387;28;20036;-77
2021/08/04 04:27:29;;;;;;;0.40;0.30;;;16.60;82.50;;;;;;5058383;28;20360;-77
2021/08/04 04:29:56;;;;;;;0.25;0.25;;;16.60;82.40;;;;;;5073905;28;20039;-77
2021/08/04 04:32:22;;;;;;;0.30;0.30;;;16.60;82.40;;;;;;5058399;28;20128;-76
2021/08/04 04:34:48;;;;;;;0.20;0.20;;;16.60;82.60;;;;;;5057174;28;20058;-77
2021/08/04 04:37:16;;;;;;;0.20;0.20;;;16.60;82.60;;;;;;5058610;28;20031;-76
2021/08/04 04:39:41;;;;;;;0.40;0.30;;;16.70;82.20;;;;;;5073722;28;20060;-77
2021/08/04 04:42:07;;;;;;;0.32;0.30;;;16.70;82.10;;;;;;5075307;28;20055;-77
2021/08/04 04:44:33;;;;;;;0.30;0.20;;;16.70;82.10;;;;;;5073049;28;20036;-76
2021/08/04 04:46:58;;;;;;;0.20;0.20;;;16.70;81.90;;;;;;5058130;28;20021;-76
2021/08/04 04:49:24;;;;;;;0.30;0.30;;;16.60;81.70;;;;;;5062562;28;20111;-77
2021/08/04 04:51:49;;;;;;;0.25;0.25;;;16.60;82.10;;;;;;5078142;28;20021;-77
2021/08/04 04:54:15;;;;;;;0.30;0.30;;;16.50;82.30;;;;;;5061843;28;20098;-76
2021/08/04 04:56:41;;;;;;;0.30;0.30;;;16.50;82.40;;;;;;5057690;28;20060;-77
2021/08/04 04:59:06;;;;;;;0.40;0.30;;;16.50;82.40;;;;;;5056814;28;20025;-77
2021/08/04 05:01:32;;;;;;;0.30;0.30;;;16.50;82.50;;;;;;5056861;28;20120;-76
2021/08/04 05:03:58;;;;;;;0.38;0.30;;;16.50;82.50;;;;;;5072407;28;20044;-76
2021/08/04 05:06:23;;;;;;;0.40;0.30;;;16.60;82.20;;;;;;5076526;28;20016;-77
2021/08/04 05:08:49;;;;;;;0.20;0.20;;;16.60;82.20;;;;;;5068179;28;20467;-77
2021/08/04 05:11:27;;;;;;;;;;;;;;;;;;;;;
2021/08/04 05:13:53;;;;;;;0.40;0.30;;;16.70;81.90;;;;;;5057773;28;20031;-77
2021/08/04 05:16:18;;;;;;;0.30;0.30;;;16.70;81.90;;;;;;5057927;28;20108;-77
2021/08/04 05:18:44;;;;;;;0.30;0.30;;;16.70;81.90;;;;;;5071635;28;20052;-76
2021/08/04 05:21:10;;;;;;;0.30;0.30;;;16.70;81.60;;;;;;5057675;28;20021;-77
2021/08/04 05:23:36;;;;;;;0.40;0.30;;;16.80;81.60;;;;;;5056093;28;20071;-77
2021/08/04 05:26:01;;;;;;;0.47;0.30;;;16.80;81.40;;;;;;5057409;28;20025;-77
2021/08/04 05:28:27;;;;;;;0.40;0.30;;;16.80;81.30;;;;;;5072754;28;20036;-77
2021/08/04 05:30:53;;;;;;;0.30;0.30;;;16.80;81.40;;;;;;5072639;28;20025;-77
2021/08/04 05:33:18;;;;;;;0.30;0.30;;;16.70;81.60;;;;;;5057119;28;20021;-77
2021/08/04 05:35:44;;;;;;;0.30;0.30;;;16.70;81.50;;;;;;5056216;28;20411;-77
2021/08/04 05:38:10;;;;;;;0.20;0.20;;;16.80;81.30;;;;;;5057305;28;20029;-77
2021/08/04 05:40:35;;;;;;;0.50;0.38;;;16.80;81.10;;;;;;5062837;28;20058;-76
2021/08/04 05:43:01;;;;;;;0.38;0.30;;;16.80;81.20;;;;;;5077194;28;20029;-77
2021/08/04 05:45:27;;;;;;;0.32;0.30;;;16.80;81.20;;;;;;5077010;28;20128;-77
2021/08/04 05:47:53;;;;;;;0.30;0.30;;;16.80;81.10;;;;;;5071702;28;20025;-77
2021/08/04 05:50:18;;;;;;;0.30;0.30;;;16.80;81.30;;;;;;5057057;28;20025;-76
2021/08/04 05:52:44;;;;;;;0.20;0.20;;;16.80;81.20;;;;;;5056693;28;20033;-77
2021/08/04 05:55:10;;;;;;;0.20;0.20;;;16.80;81.40;;;;;;5056918;28;20606;-77
2021/08/04 05:57:36;;;;;;;0.30;0.30;;;16.80;81.30;;;;;;5072639;28;20052;-77
2021/08/04 06:00:02;;;;;;;0.20;0.20;;;16.80;81.50;;;;;;5076858;28;20036;-77
2021/08/04 06:02:29;;;;;;;0.30;0.30;;;16.80;81.50;;;;;;5076707;28;20028;-77
2021/08/04 06:04:55;;;;;;;0.30;0.30;;;16.80;81.70;;;;;;5061506;28;20057;-76
2021/08/04 06:07:20;;;;;;;0.25;0.20;;;16.80;81.60;;;;;;5072233;28;20028;-77
2021/08/04 06:09:46;;;;;;;0.35;0.30;;;16.80;81.60;;;;;;5056747;28;20021;-76
2021/08/04 06:12:12;;;;;;;0.20;0.20;;;16.80;81.40;;;;;;5059953;28;20036;-77
2021/08/04 06:14:37;;;;;;;0.20;0.20;;;16.80;81.30;;;;;;5076438;28;20036;-77
2021/08/04 06:17:04;;;;;;;0.25;0.25;;;16.80;81.20;;;;;;5076282;28;20059;-77
2021/08/04 06:19:29;;;;;;;0.40;0.30;;;16.80;81.30;;;;;;5075086;28;20033;-77
2021/08/04 06:21:55;;;;;;;0.88;0.30;;;16.80;81.40;;;;;;5065395;28;20577;-76
2021/08/04 06:24:21;;;;;;;0.40;0.30;;;16.70;81.50;;;;;;5055265;28;20110;-77
2021/08/04 06:26:47;;;;;;;0.30;0.30;;;16.80;81.50;;;;;;5056249;28;20123;-77
2021/08/04 06:29:13;;;;;;;0.30;0.30;;;16.80;81.40;;;;;;5060360;28;20028;-77
2021/08/04 06:31:38;;;;;;;0.28;0.28;;;16.80;81.20;;;;;;5074808;28;20033;-77
2021/08/04 06:34:04;;;;;;;0.30;0.30;;;16.80;81.30;;;;;;5062176;28;20031;-77
2021/08/04 06:36:30;;;;;;;0.22;0.20;;;16.80;81.30;;;;;;5056112;28;20028;-77
2021/08/04 06:38:55;;;;;;;0.30;0.30;;;16.80;81.40;;;;;;5068119;28;20433;-77
2021/08/04 06:41:21;;;;;;;0.30;0.30;;;16.80;81.40;;;;;;5067976;28;20056;-77
2021/08/04 06:43:47;;;;;;;0.22;0.20;;;16.90;81.10;;;;;;5074902;28;20107;-77
2021/08/04 06:46:14;;;;;;;0.20;0.20;;;16.80;81.20;;;;;;5076015;28;20021;-77
2021/08/04 06:48:39;;;;;;;0.20;0.20;;;16.90;81.00;;;;;;5058472;28;20033;-77
2021/08/04 06:51:05;;;;;;;0.28;0.28;;;16.80;81.30;;;;;;5054710;28;20033;-77
2021/08/04 06:53:31;;;;;;;0.20;0.20;;;16.90;81.30;;;;;;5071111;28;20399;-77
2021/08/04 06:55:57;;;;;;;0.35;0.30;;;16.90;81.20;;;;;;5055743;28;20039;-76
2021/08/04 06:58:23;;;;;;;0.20;0.20;;;17.00;81.00;;;;;;5054344;28;20021;-76
2021/08/04 07:00:48;;;;;;;0.38;0.30;;;16.90;80.80;;;;;;5054468;28;20039;-77
2021/08/04 07:03:14;;;;;;;0.20;0.20;;;17.00;80.90;;;;;;5056167;28;20029;-77
2021/08/04 07:05:40;;;;;;;0.30;0.30;;;17.00;80.70;;;;;;5055594;28;20037;-77
2021/08/04 07:08:09;;;;;;;0.20;0.20;;;17.00;80.50;;;;;;5071328;28;20467;-77
2021/08/04 07:10:35;;;;;;;0.20;0.20;;;17.00;80.80;;;;;;5054197;28;20025;-76
2021/08/04 07:13:01;;;;;;;0.20;0.20;;;17.00;80.90;;;;;;5055566;28;20116;-76
2021/08/04 07:15:27;;;;;;;0.20;0.20;;;16.90;81.30;;;;;;5055497;28;20399;-76
2021/08/04 07:17:52;;;;;;;0.20;0.20;;;17.00;81.20;;;;;;5055461;28;20021;-76
2021/08/04 07:20:21;;;;;;;0.22;0.20;;;17.00;80.80;;;;;;5055671;28;20846;-76
2021/08/04 07:22:48;;;;;;;0.75;0.20;;;17.10;80.70;;;;;;5055886;28;20082;-77
2021/08/04 07:25:16;;;;;;;0.30;0.28;;;17.10;80.70;;;;;;5055427;28;20048;-77
2021/08/04 07:27:42;;;;;;;0.30;0.20;;;17.20;80.50;;;;;;5055434;28;20096;-77
2021/08/04 07:30:09;;;;;;;0.20;0.20;;;17.10;80.70;;;;;;5055558;28;20029;-77
2021/08/04 07:32:36;;;;;;;0.30;0.30;;;17.20;80.40;;;;;;5062763;28;20052;-77
2021/08/04 07:35:03;;;;;;;0.20;0.20;;;17.10;80.60;;;;;;5075432;28;20017;-77
2021/08/04 07:37:32;;;;;;;0.20;0.20;;;17.20;80.30;;;;;;5075359;28;20162;-77
2021/08/04 07:39:58;;;;;;;0.20;0.20;;;17.30;80.30;;;;;;5075341;28;20048;-76
2021/08/04 07:42:25;;;;;;;0.20;0.20;;;17.20;80.30;;;;;;5074805;28;20503;-77
2021/08/04 07:44:51;;;;;;;0.22;0.22;;;17.20;80.30;;;;;;5077933;28;20058;-76
2021/08/04 07:47:17;;;;;;;0.25;0.25;;;17.20;80.30;;;;;;5079405;28;20023;-76
2021/08/04 07:49:42;;;;;;;0.22;0.22;;;17.20;80.20;;;;;;5079330;28;20024;-76
2021/08/04 07:52:08;;;;;;;0.20;0.20;;;17.30;80.30;;;;;;5062571;28;20021;-77
2021/08/04 07:54:34;;;;;;;0.20;0.20;;;17.30;80.10;;;;;;5059174;28;20179;-77
2021/08/04 07:57:02;;;;;;;0.20;0.20;;;17.30;80.20;;;;;;5058001;28;20140;-76
2021/08/04 07:59:27;;;;;;;0.30;0.25;;;17.30;80.10;;;;;;5059186;28;20474;-76
2021/08/04 08:01:53;;;;;;;0.20;0.20;;;17.30;80.00;;;;;;5058844;28;20039;-77
2021/08/04 08:04:19;;;;;;;0.20;0.20;;;17.30;80.20;;;;;;5058873;28;20033;-77
2021/08/04 08:06:44;;;;;;;0.20;0.20;;;17.30;80.20;;;;;;5059228;28;20092;-77
2021/08/04 08:09:13;;;;;;;0.28;0.20;;;17.30;80.10;;;;;;5059123;28;20021;-77
2021/08/04 08:11:39;;;;;;;0.20;0.20;;;17.40;80.80;;;;;;5072098;28;20016;-77
2021/08/04 08:14:06;;;;;;;0.28;0.28;;;17.50;80.40;;;;;;5077453;28;20027;-77
2021/08/04 08:16:32;;;;;;;0.20;0.20;;;17.50;80.40;;;;;;5077077;28;20057;-77
2021/08/04 08:18:57;;;;;;;0.47;0.20;;;17.50;80.80;;;;;;5058626;28;20411;-77
2021/08/04 08:21:23;;;;;;;0.35;0.30;;;17.60;80.80;;;;;;5057660;28;20017;-77
2021/08/04 08:23:53;;;;;;;0.28;0.22;;;17.60;80.50;;;;;;5058328;28;20032;-77
2021/08/04 08:26:21;;;;;;;0.20;0.20;;;17.60;80.40;;;;;;5057281;28;20411;-76
2021/08/04 08:28:48;;;;;;;0.22;0.20;;;17.70;80.30;;;;;;5057137;28;20483;-77
2021/08/04 08:31:14;;;;;;;0.10;0.10;;;17.70;80.20;;;;;;5058637;28;20021;-76
2021/08/04 08:33:40;;;;;;;0.20;0.20;;;17.70;80.30;;;;;;5058514;28;20372;-76
2021/08/04 08:36:06;;;;;;;0.20;0.20;;;17.70;80.30;;;;;;5058365;28;20029;-77
2021/08/04 08:38:31;;;;;;;0.20;0.20;;;17.60;79.90;;;;;;5058364;28;20029;-76
2021/08/04 08:40:57;;;;;;;0.20;0.20;;;17.60;80.30;;;;;;5074412;28;20446;-76
2021/08/04 08:43:23;;;;;;;0.20;0.20;;;17.60;80.20;;;;;;5078305;28;20032;-77
2021/08/04 08:45:50;;;;;;;0.20;0.20;;;17.70;80.80;;;;;;5077195;28;20038;-77
2021/08/04 08:48:17;;;;;;;0.20;0.20;;;17.70;81.70;;;;;;5076002;28;20112;-77
2021/08/04 08:50:44;;;;;;;0.20;0.20;;;17.50;82.60;;;;;;5056793;28;20032;-77
2021/08/04 08:53:10;;;;;;;0.20;0.20;;;17.60;82.40;;;;;;5056274;28;20021;-77
2021/08/04 08:55:36;;;;;;;0.20;0.20;;;17.70;82.70;;;;;;5058497;28;20099;-76
2021/08/04 08:58:02;;;;;;;0.20;0.20;;;17.70;82.50;;;;;;5056621;28;20151;-77
2021/08/04 09:00:28;;;;;;;0.25;0.20;;;17.80;81.90;;;;;;5056645;28;20052;-77
2021/08/04 09:02:54;;;;;;;0.20;0.20;;;17.80;81.40;;;;;;5057685;28;20029;-76
2021/08/04 09:05:20;;;;;;;0.20;0.20;;;17.90;81.30;;;;;;5056596;28;20029;-77
2021/08/04 09:07:47;;;;;;;0.50;0.20;;;18.00;80.70;;;;;;5057678;28;20408;-77
2021/08/04 09:10:39;;;;;;;0.30;0.20;;;18.10;80.50;;;;;;5057863;28;20578;-77
2021/08/04 09:13:06;;;;;;;0.40;0.20;;;18.20;80.20;;;;;;5057815;28;20032;-77
2021/08/04 09:15:35;;;;;;;0.20;0.20;;;18.30;80.00;;;;;;5057590;28;20029;-77
2021/08/04 09:18:03;;;;;;;0.20;0.20;;;18.30;79.60;;;;;;5057375;28;20120;-77
2021/08/04 09:20:31;;;;;;;0.20;0.20;;;18.40;79.40;;;;;;5057618;28;20105;-77
2021/08/04 09:23:01;;;;;;;0.32;0.20;;;18.50;79.00;;;;;;5061088;28;20033;-77
2021/08/04 09:25:27;;;;;;;;;;;18.60;78.90;;;;;;5077983;28;20024;-77
2021/08/04 09:27:57;;;;;;;0.10;0.10;;;18.60;78.90;;;;;;5077792;28;20045;-77
2021/08/04 09:30:25;;;;;;;0.30;0.20;;;18.60;78.90;;;;;;5077505;28;20020;-77
2021/08/04 09:32:51;;;;;;;0.20;0.20;;;18.70;78.40;;;;;;5065273;28;20021;-77
2021/08/04 09:35:21;;;;;;;0.20;0.20;;;18.70;78.50;;;;;;5057307;28;20072;-77
2021/08/04 09:37:48;;;;;;;0.20;0.20;;;18.60;78.50;;;;;;5057140;28;20031;-77
2021/08/04 09:40:18;;;;;;;0.20;0.20;;;18.70;78.70;;;;;;5058928;28;20024;-77
2021/08/04 09:42:54;;;;;;;0.10;0.10;;;18.80;78.60;;;;;;5076540;28;20044;-77
2021/08/04 09:45:24;;;;;;;0.20;0.20;;;18.70;78.70;;;;;;5057042;28;20064;-77
2021/08/04 09:48:01;;;;;;;;;;;18.80;78.70;;;;;;5057502;28;20043;-76
2021/08/04 09:50:42;;;;;;;0.28;0.20;;;18.80;78.50;;;;;;5055851;28;19904;-77
2021/08/04 09:53:07;;;;;;;0.20;0.20;;;18.80;78.50;;;;;;5056916;28;20023;-76
2021/08/04 09:55:33;;;;;;;0.20;0.20;;;18.90;78.40;;;;;;5057059;28;20088;-77
2021/08/04 09:57:59;;;;;;;0.20;0.20;;;18.90;78.40;;;;;;5055724;28;20021;-77
2021/08/04 10:00:25;;;;;;;0.20;0.20;;;19.10;78.00;;;;;;5056768;28;20051;-77
2021/08/04 10:02:52;;;;;;;0.15;0.10;;;19.20;77.60;;;;;;5055358;28;20041;-77
2021/08/04 10:05:24;;;;;;;0.10;0.10;;;19.20;77.30;;;;;;5060827;28;20088;-77
2021/08/04 10:07:59;;;;;;;0.10;0.10;;;19.30;77.30;;;;;;5075413;28;20024;-76
2021/08/04 10:10:25;;;;;;;0.10;0.10;;;19.50;76.80;;;;;;5076746;28;20069;-76
2021/08/04 10:12:51;;;;;;;0.32;0.20;;;19.60;76.40;;;;;;5069125;28;20013;-77
2021/08/04 10:15:17;;;;;;;0.10;0.10;;;19.70;76.10;;;;;;5055186;28;20036;-76
2021/08/04 10:17:43;;;;;;;0.15;0.10;;;19.70;76.00;;;;;;5055463;28;20494;-77
2021/08/04 10:20:09;;;;;;;0.40;0.20;;;19.80;76.00;;;;;;5055408;28;20025;-77
2021/08/04 10:22:36;;;;;;;0.10;0.10;;;19.90;75.30;;;;;;5065065;28;20449;-77
2021/08/04 10:25:03;;;;;;;0.20;0.15;;;20.00;75.00;;;;;;5055159;28;20037;-77
2021/08/04 10:27:29;;;;;;;0.20;0.20;;;20.00;75.10;;;;;;5055388;28;20017;-77
2021/08/04 10:29:55;;;;;;;0.20;0.20;;;20.10;75.20;;;;;;5056515;28;20033;-77
2021/08/04 10:32:21;;;;;;;0.10;0.10;;;20.30;74.50;;;;;;5054801;28;20062;-77
2021/08/04 10:34:49;;;;;;;0.10;0.10;;;20.40;74.50;;;;;;5055991;28;20050;-77
2021/08/04 10:37:16;;;;;;;0.10;0.10;;;20.70;74.00;;;;;;5054849;28;20040;-77
2021/08/04 10:39:42;;;;;;;0.28;0.20;;;20.70;73.60;;;;;;5071666;28;20029;-77
2021/08/04 10:42:08;;;;;;;0.20;0.20;;;20.70;73.50;;;;;;5073897;28;20055;-77
2021/08/04 10:44:35;;;;;;;0.40;0.20;;;20.60;73.50;;;;;;5074738;28;20082;-77
2021/08/04 10:47:05;;;;;;;0.20;0.10;;;20.40;74.20;;;;;;5074516;28;20031;-77
2021/08/04 10:49:33;;;;;;;0.10;0.10;;;20.40;74.10;;;;;;5074770;28;20096;-77
2021/08/04 10:52:04;;;;;;;0.20;0.20;;;20.30;74.30;;;;;;5073798;28;20086;-77
2021/08/04 10:54:32;;;;;;;0.10;0.10;;;20.20;74.60;;;;;;5054849;28;20037;-76
2021/08/04 10:57:01;;;;;;;0.13;0.10;;;20.20;74.50;;;;;;5062000;28;20025;-77
2021/08/04 10:59:28;;;;;;;0.20;0.20;;;20.20;73.50;;;;;;5055734;28;20072;-76
2021/08/04 11:02:03;;;;;;;0.47;0.20;;;20.00;74.70;;;;;;5054376;28;20029;-77
2021/08/04 11:04:29;;;;;;;0.10;0.10;;;20.10;74.80;;;;;;5067912;28;20399;-77
2021/08/04 11:07:16;;;;;;;0.10;0.10;;;20.20;74.70;;;;;;5070953;28;20021;-77
2021/08/04 11:09:48;;;;;;;0.10;0.10;;;20.10;74.20;;;;;;5071137;28;20495;-77
2021/08/04 11:12:21;;;;;;;0.20;0.20;;;20.20;74.30;;;;;;5055483;28;20044;-77
2021/08/04 11:14:55;;;;;;;0.10;0.10;;;20.20;74.10;;;;;;5054322;28;20036;-77
2021/08/04 11:17:27;;;;;;;0.20;0.20;;;20.20;73.60;;;;;;5055592;28;20048;-77
2021/08/04 11:20:09;;;;;;;0.20;0.20;;;20.20;74.40;;;;;;5054107;28;20029;-77
2021/08/04 11:22:34;;;;;;;0.10;0.10;;;20.40;74.30;;;;;;5054205;28;20112;-77
2021/08/04 11:25:08;;;;;;;0.15;0.15;;;20.50;74.10;;;;;;5071023;28;20071;-77
2021/08/04 11:27:56;;;;;;;0.10;0.10;;;20.70;73.50;;;;;;5073584;28;20025;-77
2021/08/04 11:30:37;;;;;;;0.10;0.10;;;20.80;73.60;;;;;;5067941;28;20040;-77
2021/08/04 11:33:18;;;;;;;0.28;0.10;;;21.00;73.50;;;;;;5055539;28;20025;-77
2021/08/04 11:35:59;;;;;;;0.22;0.10;;;21.00;73.00;;;;;;5054033;28;20078;-77
2021/08/04 11:38:44;;;;;;;0.10;0.10;;;20.90;73.80;;;;;;5055335;28;20035;-77
2021/08/04 11:41:21;;;;;;;0.20;0.10;;;20.90;73.40;;;;;;5064539;28;20053;-77
2021/08/04 11:43:49;;;;;;;0.10;0.10;;;20.90;72.90;;;;;;5073166;28;20040;-77
2021/08/04 11:47:02;;;;;;;0.10;0.10;;;20.90;73.40;;;;;;5074144;28;20025;-77
2021/08/04 11:49:35;;;;;;;0.10;0.10;;;20.80;73.80;;;;;;5018859;28;20055;-76
2021/08/04 11:52:16;;;;;;;0.10;0.10;;;20.90;73.40;;;;;;5053892;28;20029;-77
2021/08/04 11:54:46;;;;;;;0.20;0.10;;;20.60;73.60;;;;;;5053708;28;20053;-77
2021/08/04 11:57:13;;;;;;;;;;;20.40;74.40;;;;;;5054545;28;20029;-77
2021/08/04 11:59:48;;;;;;;0.10;0.10;;;20.40;74.80;;;;;;5055009;28;19912;-77
2021/08/04 12:02:15;;;;;;;0.20;0.10;;;20.60;74.70;;;;;;5055021;28;20025;-77
2021/08/04 12:04:49;;;;;;;0.10;0.10;;;20.60;74.60;;;;;;5054854;28;20036;-77
2021/08/04 12:07:15;;;;;;;0.17;0.17;;;20.70;74.20;;;;;;5055138;28;20017;-77
2021/08/04 12:09:41;;;;;;;0.10;0.10;;;20.80;73.60;;;;;;5073226;28;20471;-77
2021/08/04 12:12:20;;;;;;;0.98;0.13;;;20.80;73.80;;;;;;5075025;28;20016;-76
2021/08/04 12:14:46;;;;;;;0.17;0.10;;;20.70;74.10;;;;;;5075257;28;20142;-77
2021/08/04 12:17:23;;;;;;;0.20;0.20;;;20.60;74.50;;;;;;5066268;28;20570;-77
2021/08/04 12:19:50;;;;;;;0.20;0.10;;;20.60;74.20;;;;;;5053554;28;20029;-77
2021/08/04 12:22:19;;;;;;;0.20;0.20;;;20.50;74.20;;;;;;5055086;28;20037;-77
2021/08/04 12:24:49;;;;;;;0.40;0.10;;;20.40;73.70;;;;;;5054862;28;20076;-77
2021/08/04 12:27:36;;;;;;;0.17;0.10;;;20.50;74.00;;;;;;5066999;28;20479;-77
2021/08/04 12:30:11;;;;;;;0.40;0.20;;;20.40;73.80;;;;;;5078680;28;20055;-77
2021/08/04 12:32:55;;;;;;;0.20;0.20;;;20.50;74.10;;;;;;5069321;28;20383;-77
2021/08/04 12:35:35;;;;;;;0.20;0.20;;;20.70;74.10;;;;;;5058715;28;20028;-77
2021/08/04 12:38:01;;;;;;;;;;;20.50;73.80;;;;;;5058850;28;20158;-77
2021/08/04 12:40:27;;;;;;;0.40;0.20;;;20.40;74.10;;;;;;5077158;28;19904;-77
2021/08/04 12:42:53;;;;;;;0.28;0.20;;;20.30;74.20;;;;;;5076397;28;20032;-77
2021/08/04 12:45:27;;;;;;;0.20;0.15;;;20.20;75.10;;;;;;5078408;28;20501;-77
2021/08/04 12:48:04;;;;;;;0.85;0.10;;;20.20;75.30;;;;;;5075058;28;20064;-76
2021/08/04 12:50:46;;;;;;;0.10;0.10;;;20.10;75.00;;;;;;5058110;28;20159;-76
2021/08/04 12:53:21;;;;;;;0.10;0.10;;;20.10;75.40;;;;;;5056830;28;20028;-77